createdAt,value
2023-06-24T00:02:56.201Z,59.07
2023-06-24T00:06:27.431Z,59.20
2023-06-24T00:09:54.753Z,59.10
2023-06-24T00:13:23.795Z,59.26
2023-06-24T00:16:52.847Z,59.13
2023-06-24T00:20:21.566Z,59.20
2023-06-24T00:23:50.807Z,59.40
2023-06-24T00:27:18.358Z,59.30
2023-06-24T00:30:45.296Z,59.28
2023-06-24T00:34:13.811Z,59.43
2023-06-24T00:37:41.288Z,59.49
2023-06-24T00:41:08.962Z,59.58
2023-06-24T00:44:38.867Z,59.55
2023-06-24T00:48:06.468Z,59.79
2023-06-24T00:51:35.451Z,59.91
2023-06-24T00:55:04.766Z,59.83
2023-06-24T00:58:34.298Z,60.04
2023-06-24T01:02:03.306Z,60.08
2023-06-24T01:05:31.411Z,59.97
2023-06-24T01:08:58.819Z,60.04
2023-06-24T01:12:25.607Z,60.00
2023-06-24T01:15:53.580Z,60.00
2023-06-24T01:19:39.625Z,60.04
2023-06-24T01:23:45.906Z,60.10
2023-06-24T01:27:47.601Z,60.07
2023-06-24T01:31:39.944Z,60.17
2023-06-24T01:35:14.255Z,60.28
2023-06-24T01:38:46.620Z,60.37
2023-06-24T01:42:17.540Z,60.32
2023-06-24T01:45:49.393Z,60.32
2023-06-24T01:49:18.486Z,60.45
2023-06-24T01:52:48.253Z,60.64
2023-06-24T01:56:17.167Z,60.75
2023-06-24T01:59:48.676Z,60.89
2023-06-24T02:03:17.367Z,61.00
2023-06-24T02:06:45.935Z,61.02
2023-06-24T02:10:14.546Z,61.04
2023-06-24T02:13:43.145Z,61.08
2023-06-24T02:17:25.969Z,61.10
2023-06-24T02:20:54.403Z,61.02
2023-06-24T02:24:23.324Z,61.11
2023-06-24T02:27:51.066Z,61.20
2023-06-24T02:31:18.994Z,61.19
2023-06-24T02:34:46.406Z,61.17
2023-06-24T02:38:13.307Z,61.25
2023-06-24T02:41:39.946Z,61.21
2023-06-24T02:45:11.050Z,61.27
2023-06-24T02:48:40.374Z,61.41
2023-06-24T02:52:08.277Z,61.44
2023-06-24T02:55:37.545Z,61.50
2023-06-24T02:59:04.922Z,61.54
2023-06-24T03:02:32.389Z,61.57
2023-06-24T03:06:00.028Z,61.69
2023-06-24T03:09:31.210Z,61.75
2023-06-24T03:12:57.926Z,61.86
2023-06-24T03:16:32.275Z,62.03
2023-06-24T03:20:09.930Z,62.01
2023-06-24T03:23:37.271Z,61.92
2023-06-24T03:27:04.171Z,61.91
2023-06-24T03:30:37.612Z,62.01
2023-06-24T03:34:05.091Z,62.17
2023-06-24T03:37:32.553Z,62.18
2023-06-24T03:41:00.063Z,62.17
2023-06-24T03:44:27.666Z,62.15
2023-06-24T03:47:54.662Z,62.24
2023-06-24T03:51:21.878Z,62.37
2023-06-24T03:54:49.258Z,62.50
2023-06-24T03:58:18.018Z,62.68
2023-06-24T04:01:44.563Z,62.63
2023-06-24T04:05:12.802Z,62.96
2023-06-24T04:08:41.340Z,63.18
2023-06-24T04:12:08.956Z,63.35
2023-06-24T04:15:35.951Z,63.46
2023-06-24T04:19:02.879Z,63.56
2023-06-24T04:22:30.076Z,63.66
2023-06-24T04:25:58.953Z,64.00
2023-06-24T04:29:25.971Z,64.06
2023-06-24T04:32:52.773Z,64.10
2023-06-24T04:36:20.593Z,64.13
2023-06-24T04:39:47.477Z,64.16
2023-06-24T04:43:14.118Z,64.24
2023-06-24T04:46:41.359Z,64.29
2023-06-24T04:50:10.902Z,64.23
2023-06-24T04:53:37.809Z,64.43
2023-06-24T04:57:05.612Z,64.38
2023-06-24T05:00:32.252Z,64.59
2023-06-24T05:03:58.900Z,64.50
2023-06-24T05:07:25.470Z,64.55
2023-06-24T05:10:51.963Z,64.59
2023-06-24T05:14:18.601Z,64.66
2023-06-24T05:17:45.295Z,64.44
2023-06-24T05:21:12.101Z,64.25
2023-06-24T05:24:39.048Z,64.26
2023-06-24T05:28:06.066Z,64.34
2023-06-24T05:31:32.864Z,64.25
2023-06-24T05:35:00.214Z,64.28
2023-06-24T05:38:26.971Z,64.22
2023-06-24T05:41:54.320Z,64.29
2023-06-24T05:45:20.966Z,64.07
2023-06-24T05:48:48.184Z,63.99
2023-06-24T05:52:14.784Z,63.90
2023-06-24T05:55:41.538Z,63.78
2023-06-24T05:59:08.123Z,63.68
2023-06-24T06:02:35.055Z,63.68
2023-06-24T06:06:02.571Z,63.55
2023-06-24T06:09:29.663Z,63.40
2023-06-24T06:12:56.682Z,63.39
2023-06-24T06:16:23.314Z,63.36
2023-06-24T06:19:52.366Z,63.22
2023-06-24T06:23:20.620Z,63.13
2023-06-24T06:26:48.184Z,63.03
2023-06-24T06:30:18.925Z,62.81
2023-06-24T06:33:46.048Z,62.79
2023-06-24T06:37:13.340Z,62.61
2023-06-24T06:40:40.084Z,62.43
2023-06-24T06:44:07.606Z,62.22
2023-06-24T06:47:34.557Z,62.21
2023-06-24T06:51:01.255Z,62.18
2023-06-24T06:54:27.903Z,62.13
2023-06-24T06:57:55.333Z,62.03
2023-06-24T07:01:22.181Z,61.79
2023-06-24T07:04:49.598Z,61.94
2023-06-24T07:08:16.529Z,61.89
2023-06-24T07:11:43.159Z,61.71
2023-06-24T07:15:13.157Z,61.50
2023-06-24T07:18:40.451Z,61.18
2023-06-24T07:22:07.715Z,60.72
2023-06-24T07:25:36.096Z,60.30
2023-06-24T07:29:09.226Z,59.77
2023-06-24T07:32:34.980Z,59.65
2023-06-24T07:36:01.857Z,59.67
2023-06-24T07:39:29.056Z,59.52
2023-06-24T07:42:55.644Z,59.06
2023-06-24T07:46:22.694Z,58.76
2023-06-24T07:49:49.617Z,58.36
2023-06-24T07:53:17.381Z,58.18
2023-06-24T07:56:44.054Z,58.13
2023-06-24T08:00:13.894Z,58.11
2023-06-24T08:03:40.925Z,57.88
2023-06-24T08:07:09.500Z,57.53
2023-06-24T08:10:36.824Z,57.37
2023-06-24T08:14:05.374Z,57.37
2023-06-24T08:17:32.260Z,56.74
2023-06-24T08:21:00.195Z,56.41
2023-06-24T08:24:27.176Z,56.51
2023-06-24T08:27:53.929Z,56.48
2023-06-24T08:31:24.068Z,56.26
2023-06-24T08:34:51.233Z,56.24
2023-06-24T08:38:18.999Z,56.34
2023-06-24T08:41:46.144Z,56.14
2023-06-24T08:45:14.298Z,55.76
2023-06-24T08:48:45.128Z,55.73
2023-06-24T08:52:17.707Z,55.73
2023-06-24T08:55:48.862Z,55.68
2023-06-24T08:59:20.739Z,55.42
2023-06-24T09:02:48.110Z,55.47
2023-06-24T09:06:15.216Z,55.23
2023-06-24T09:09:47.743Z,55.00
2023-06-24T09:13:14.870Z,55.01
2023-06-24T09:16:41.810Z,55.00
2023-06-24T09:20:12.384Z,54.82
2023-06-24T09:23:41.359Z,54.71
2023-06-24T09:27:12.763Z,54.64
2023-06-24T09:30:40.437Z,54.33
2023-06-24T09:34:07.840Z,54.19
2023-06-24T09:37:37.381Z,54.23
2023-06-24T09:41:13.711Z,54.41
2023-06-24T09:44:41.587Z,54.10
2023-06-24T09:48:09.379Z,54.05
2023-06-24T09:51:40.460Z,53.95
2023-06-24T09:55:13.402Z,53.63
2023-06-24T09:58:43.748Z,53.72
2023-06-24T10:02:16.759Z,53.59
2023-06-24T10:05:45.571Z,53.51
2023-06-24T10:09:16.732Z,53.72
2023-06-24T10:12:45.780Z,53.40
2023-06-24T10:16:13.046Z,53.19
2023-06-24T10:19:44.266Z,53.01
2023-06-24T10:23:11.811Z,52.81
2023-06-24T10:26:42.646Z,52.81
2023-06-24T10:30:19.285Z,52.76
2023-06-24T10:33:55.412Z,52.02
2023-06-24T10:37:26.026Z,52.02
2023-06-24T10:40:53.664Z,51.89
2023-06-24T10:44:21.866Z,51.46
2023-06-24T10:47:50.083Z,51.20
2023-06-24T10:51:17.751Z,51.18
2023-06-24T10:54:45.348Z,51.09
2023-06-24T10:58:16.857Z,50.90
2023-06-24T11:01:57.325Z,50.68
2023-06-24T11:05:24.138Z,49.87
2023-06-24T11:08:52.056Z,49.58
2023-06-24T11:12:19.188Z,49.43
2023-06-24T11:15:46.845Z,49.21
2023-06-24T11:19:14.045Z,49.66
2023-06-24T11:22:41.871Z,49.40
2023-06-24T11:26:09.347Z,49.16
2023-06-24T11:29:37.042Z,48.77
2023-06-24T11:33:04.198Z,48.69
2023-06-24T11:36:31.673Z,48.51
2023-06-24T11:40:07.384Z,47.90
2023-06-24T11:43:34.541Z,47.57
2023-06-24T11:47:14.507Z,47.43
2023-06-24T11:50:41.662Z,47.40
2023-06-24T11:54:09.584Z,47.25
2023-06-24T11:57:54.679Z,47.05
2023-06-24T12:01:22.133Z,46.81
2023-06-24T12:04:50.464Z,46.60
2023-06-24T12:08:18.141Z,46.73
2023-06-24T12:11:45.349Z,46.79
2023-06-24T12:15:13.117Z,46.69
2023-06-24T12:18:40.003Z,46.69
2023-06-24T12:22:07.306Z,46.58
2023-06-24T12:25:34.730Z,46.87
2023-06-24T12:29:01.858Z,46.71
2023-06-24T12:32:28.662Z,46.48
2023-06-24T12:35:55.957Z,46.08
2023-06-24T12:39:22.809Z,45.91
2023-06-24T12:42:49.937Z,45.79
2023-06-24T12:46:17.575Z,45.23
2023-06-24T12:49:46.486Z,45.03
2023-06-24T12:53:21.450Z,44.96
2023-06-24T12:56:49.198Z,44.33
2023-06-24T13:00:21.736Z,43.93
2023-06-24T13:03:48.659Z,43.58
2023-06-24T13:07:17.155Z,43.47
2023-06-24T13:10:45.394Z,43.33
2023-06-24T13:14:12.474Z,43.19
2023-06-24T13:17:39.656Z,43.00
2023-06-24T13:21:15.635Z,42.67
2023-06-24T13:24:43.768Z,42.70
2023-06-24T13:28:10.620Z,42.06
2023-06-24T13:31:37.680Z,41.72
2023-06-24T13:35:08.445Z,41.42
2023-06-24T13:38:35.700Z,41.42
2023-06-24T13:42:03.181Z,41.59
2023-06-24T13:45:30.050Z,41.38
2023-06-24T13:48:57.758Z,41.41
2023-06-24T13:52:24.754Z,41.40
2023-06-24T13:55:55.023Z,41.46
2023-06-24T13:59:22.612Z,41.89
2023-06-24T14:02:49.590Z,41.72
2023-06-24T14:06:21.012Z,41.41
2023-06-24T14:09:48.596Z,41.06
2023-06-24T14:13:18.299Z,40.87
2023-06-24T14:16:45.658Z,40.98
2023-06-24T14:20:14.590Z,40.64
2023-06-24T14:23:42.492Z,40.48
2023-06-24T14:27:11.392Z,40.03
2023-06-24T14:30:39.101Z,39.74
2023-06-24T14:34:06.529Z,39.40
2023-06-24T14:37:34.543Z,39.14
2023-06-24T14:41:01.856Z,39.08
2023-06-24T14:44:29.941Z,38.97
2023-06-24T14:47:58.891Z,38.77
2023-06-24T14:51:28.304Z,38.54
2023-06-24T14:55:11.230Z,38.89
2023-06-24T14:58:38.797Z,38.63
2023-06-24T15:02:07.047Z,38.48
2023-06-24T15:05:35.934Z,38.28
2023-06-24T15:09:03.564Z,37.78
2023-06-24T15:12:30.528Z,37.63
2023-06-24T15:15:57.999Z,37.29
2023-06-24T15:19:24.602Z,36.93
2023-06-24T15:22:51.918Z,36.51
2023-06-24T15:26:19.015Z,36.28
2023-06-24T15:29:46.076Z,36.33
2023-06-24T15:33:12.874Z,35.86
2023-06-24T15:36:41.762Z,35.67
2023-06-24T15:40:11.288Z,35.12
2023-06-24T15:43:39.028Z,35.03
2023-06-24T15:47:07.303Z,34.72
2023-06-24T15:50:34.388Z,34.39
2023-06-24T15:54:01.462Z,34.17
2023-06-24T15:57:28.512Z,33.87
2023-06-24T16:00:55.860Z,33.62
2023-06-24T16:04:23.153Z,33.61
2023-06-24T16:07:51.059Z,33.70
2023-06-24T16:11:18.498Z,33.89
2023-06-24T16:14:46.093Z,33.74
2023-06-24T16:18:12.977Z,33.79
2023-06-24T16:21:39.635Z,33.83
2023-06-24T16:25:07.012Z,33.94
2023-06-24T16:28:34.054Z,33.73
2023-06-24T16:32:03.394Z,33.90
2023-06-24T16:35:30.822Z,34.08
2023-06-24T16:38:58.004Z,34.13
2023-06-24T16:42:28.105Z,34.32
2023-06-24T16:45:55.814Z,34.54
2023-06-24T16:49:25.884Z,34.72
2023-06-24T16:52:53.158Z,34.70
2023-06-24T16:56:19.810Z,34.69
2023-06-24T16:59:47.235Z,35.15
2023-06-24T17:03:15.186Z,35.53
2023-06-24T17:06:43.508Z,35.60
2023-06-24T17:10:14.788Z,35.82
2023-06-24T17:13:41.444Z,35.91
2023-06-24T17:17:08.406Z,36.04
2023-06-24T17:20:36.021Z,36.47
2023-06-24T17:24:03.346Z,36.54
2023-06-24T17:27:30.232Z,36.67
2023-06-24T17:30:57.301Z,36.70
2023-06-24T17:34:25.362Z,37.08
2023-06-24T17:37:52.259Z,37.45
2023-06-24T17:41:24.514Z,37.60
2023-06-24T17:44:51.452Z,37.69
2023-06-24T17:48:18.598Z,37.89
2023-06-24T17:51:45.760Z,38.08
2023-06-24T17:55:13.071Z,38.11
2023-06-24T17:58:39.569Z,38.22
2023-06-24T18:02:06.927Z,38.43
2023-06-24T18:05:34.302Z,38.42
2023-06-24T18:09:01.445Z,38.70
2023-06-24T18:12:28.899Z,38.70
2023-06-24T18:15:56.120Z,38.88
2023-06-24T18:19:23.929Z,39.15
2023-06-24T18:22:51.715Z,39.31
2023-06-24T18:26:18.780Z,39.35
2023-06-24T18:29:45.733Z,39.55
2023-06-24T18:33:12.675Z,39.87
2023-06-24T18:36:39.834Z,39.98
2023-06-24T18:40:09.232Z,40.07
2023-06-24T18:43:36.192Z,40.27
2023-06-24T18:47:03.405Z,40.53
2023-06-24T18:50:30.291Z,40.73
2023-06-24T18:53:57.879Z,40.87
2023-06-24T18:57:25.338Z,40.78
2023-06-24T19:00:54.031Z,40.56
2023-06-24T19:04:24.870Z,40.64
2023-06-24T19:07:52.570Z,40.74
2023-06-24T19:11:21.238Z,40.76
2023-06-24T19:14:49.630Z,40.88
2023-06-24T19:18:18.109Z,40.96
2023-06-24T19:21:46.174Z,41.12
2023-06-24T19:25:15.049Z,41.29
2023-06-24T19:28:42.285Z,41.44
2023-06-24T19:32:10.885Z,41.57
2023-06-24T19:35:38.041Z,42.01
2023-06-24T19:39:04.913Z,41.79
2023-06-24T19:42:32.664Z,41.86
2023-06-24T19:45:59.891Z,42.16
2023-06-24T19:49:27.357Z,42.17
2023-06-24T19:52:55.116Z,42.33
2023-06-24T19:56:21.876Z,42.38
2023-06-24T19:59:49.699Z,42.75
2023-06-24T20:03:16.985Z,42.87
2023-06-24T20:06:44.595Z,42.97
2023-06-24T20:10:14.198Z,43.01
2023-06-24T20:13:41.325Z,43.30
2023-06-24T20:17:09.783Z,43.38
2023-06-24T20:20:37.137Z,43.59
2023-06-24T20:24:07.472Z,43.75
2023-06-24T20:27:35.527Z,43.84
2023-06-24T20:31:04.154Z,44.05
2023-06-24T20:34:30.696Z,44.07
2023-06-24T20:37:57.232Z,44.00
2023-06-24T20:41:28.938Z,44.01
2023-06-24T20:44:55.965Z,43.93
2023-06-24T20:48:25.236Z,43.98
2023-06-24T20:51:53.263Z,43.95
2023-06-24T20:55:22.181Z,43.81
2023-06-24T20:58:49.293Z,44.01
2023-06-24T21:02:17.009Z,44.09
2023-06-24T21:05:48.543Z,44.16
2023-06-24T21:09:21.190Z,44.45
2023-06-24T21:16:21.206Z,44.47
2023-06-24T21:19:49.072Z,44.57
2023-06-24T21:23:17.149Z,44.63
2023-06-24T21:26:46.715Z,44.84
2023-06-24T21:30:16.446Z,45.04
2023-06-24T21:33:44.614Z,45.20
2023-06-24T21:37:12.065Z,45.38
2023-06-24T21:40:39.620Z,45.52
2023-06-24T21:44:07.291Z,45.69
2023-06-24T21:47:34.312Z,45.81
2023-06-24T21:51:02.063Z,45.91
2023-06-24T21:54:29.526Z,46.00
2023-06-24T21:57:57.810Z,46.09
2023-06-24T22:01:26.190Z,46.24
2023-06-24T22:04:52.909Z,46.49
2023-06-24T22:08:20.826Z,46.75
2023-06-24T22:11:48.469Z,46.81
2023-06-24T22:15:16.144Z,47.08
2023-06-24T22:18:43.033Z,47.06
2023-06-24T22:22:11.101Z,47.14
2023-06-24T22:25:42.598Z,47.35
2023-06-24T22:29:12.513Z,47.49
2023-06-24T22:32:39.886Z,47.62
2023-06-24T22:36:07.227Z,47.73
2023-06-24T22:39:34.381Z,47.83
2023-06-24T22:43:02.569Z,48.03
2023-06-24T22:46:29.758Z,48.29
2023-06-24T22:49:56.428Z,48.38
2023-06-24T22:53:23.730Z,48.47
2023-06-24T22:56:51.346Z,48.53
2023-06-24T23:00:20.077Z,48.76
2023-06-24T23:03:51.923Z,48.92
2023-06-24T23:07:20.029Z,48.96
2023-06-24T23:10:48.252Z,49.02
2023-06-24T23:14:15.954Z,49.30
2023-06-24T23:17:43.298Z,49.46
2023-06-24T23:21:12.875Z,49.73
2023-06-24T23:24:40.554Z,49.88
2023-06-24T23:28:07.178Z,50.10
2023-06-24T23:31:40.053Z,50.33
2023-06-24T23:35:09.117Z,50.57
2023-06-24T23:38:37.661Z,50.80
2023-06-24T23:42:06.922Z,50.97
2023-06-24T23:45:34.733Z,51.08
2023-06-24T23:49:01.754Z,51.21
2023-06-24T23:52:28.437Z,51.40
2023-06-24T23:55:55.923Z,51.60
2023-06-24T23:59:23.815Z,51.62
